sensor_id;sensor_type;location;lat;lon;timestamp;temperature;humidity
46378;DHT22;32083;47.360;9.650;2023-08-12T00:00:29;20.30;98.50
46378;DHT22;32083;47.360;9.650;2023-08-12T00:02:56;20.30;98.90
46378;DHT22;32083;47.360;9.650;2023-08-12T00:05:22;20.20;98.70
46378;DHT22;32083;47.360;9.650;2023-08-12T00:07:49;20.20;98.40
46378;DHT22;32083;47.360;9.650;2023-08-12T00:10:16;20.20;98.70
46378;DHT22;32083;47.360;9.650;2023-08-12T00:12:43;20.20;98.80
46378;DHT22;32083;47.360;9.650;2023-08-12T00:15:10;20.20;99.00
46378;DHT22;32083;47.360;9.650;2023-08-12T00:17:36;20.20;98.80
46378;DHT22;32083;47.360;9.650;2023-08-12T00:20:05;20.10;98.90
46378;DHT22;32083;47.360;9.650;2023-08-12T00:22:32;20.00;98.70
46378;DHT22;32083;47.360;9.650;2023-08-12T00:24:58;20.10;98.80
46378;DHT22;32083;47.360;9.650;2023-08-12T00:27:24;20.00;99.30
46378;DHT22;32083;47.360;9.650;2023-08-12T00:29:52;20.00;99.20
46378;DHT22;32083;47.360;9.650;2023-08-12T00:32:18;20.00;98.90
46378;DHT22;32083;47.360;9.650;2023-08-12T00:34:45;19.90;99.50
46378;DHT22;32083;47.360;9.650;2023-08-12T00:37:11;19.90;99.40
46378;DHT22;32083;47.360;9.650;2023-08-12T00:39:38;19.90;99.40
46378;DHT22;32083;47.360;9.650;2023-08-12T00:42:05;19.90;99.00
46378;DHT22;32083;47.360;9.650;2023-08-12T00:44:32;19.90;99.00
46378;DHT22;32083;47.360;9.650;2023-08-12T00:46:58;19.90;99.10
46378;DHT22;32083;47.360;9.650;2023-08-12T00:49:25;19.80;98.90
46378;DHT22;32083;47.360;9.650;2023-08-12T00:51:53;19.80;99.30
46378;DHT22;32083;47.360;9.650;2023-08-12T00:54:21;19.80;99.30
46378;DHT22;32083;47.360;9.650;2023-08-12T00:56:49;19.70;99.10
46378;DHT22;32083;47.360;9.650;2023-08-12T00:59:17;19.70;99.50
46378;DHT22;32083;47.360;9.650;2023-08-12T01:01:45;19.70;99.90
46378;DHT22;32083;47.360;9.650;2023-08-12T01:04:12;19.60;99.90
46378;DHT22;32083;47.360;9.650;2023-08-12T01:06:39;19.60;99.80
46378;DHT22;32083;47.360;9.650;2023-08-12T01:09:06;19.60;99.80
46378;DHT22;32083;47.360;9.650;2023-08-12T01:11:40;19.50;99.90
46378;DHT22;32083;47.360;9.650;2023-08-12T01:14:28;19.50;99.90
46378;DHT22;32083;47.360;9.650;2023-08-12T01:16:59;19.60;99.60
46378;DHT22;32083;47.360;9.650;2023-08-12T01:19:34;19.50;99.40
46378;DHT22;32083;47.360;9.650;2023-08-12T01:22:02;19.50;99.70
46378;DHT22;32083;47.360;9.650;2023-08-12T01:24:43;19.40;99.70
46378;DHT22;32083;47.360;9.650;2023-08-12T01:27:13;19.40;99.90
46378;DHT22;32083;47.360;9.650;2023-08-12T01:29:45;19.40;99.90
46378;DHT22;32083;47.360;9.650;2023-08-12T01:38:03;19.40;99.90
46378;DHT22;32083;47.360;9.650;2023-08-12T01:40:32;19.30;99.90
46378;DHT22;32083;47.360;9.650;2023-08-12T01:42:59;19.30;99.90
46378;DHT22;32083;47.360;9.650;2023-08-12T01:45:26;19.30;99.90
46378;DHT22;32083;47.360;9.650;2023-08-12T01:47:52;19.20;99.90
46378;DHT22;32083;47.360;9.650;2023-08-12T01:50:19;19.20;99.90
46378;DHT22;32083;47.360;9.650;2023-08-12T01:56:09;19.20;99.90
46378;DHT22;32083;47.360;9.650;2023-08-12T01:58:35;19.20;99.90
46378;DHT22;32083;47.360;9.650;2023-08-12T02:01:01;19.20;99.90
46378;DHT22;32083;47.360;9.650;2023-08-12T02:03:28;19.20;99.90
46378;DHT22;32083;47.360;9.650;2023-08-12T02:05:54;19.20;99.90
46378;DHT22;32083;47.360;9.650;2023-08-12T02:08:20;19.20;99.90
46378;DHT22;32083;47.360;9.650;2023-08-12T02:10:46;19.20;99.90
46378;DHT22;32083;47.360;9.650;2023-08-12T02:16:34;19.10;99.90
46378;DHT22;32083;47.360;9.650;2023-08-12T02:19:02;19.10;99.90
46378;DHT22;32083;47.360;9.650;2023-08-12T02:21:28;19.00;99.90
46378;DHT22;32083;47.360;9.650;2023-08-12T02:23:57;18.90;99.90
46378;DHT22;32083;47.360;9.650;2023-08-12T02:26:23;19.00;99.90
46378;DHT22;32083;47.360;9.650;2023-08-12T02:28:49;19.00;99.90
46378;DHT22;32083;47.360;9.650;2023-08-12T02:31:16;18.90;99.90
46378;DHT22;32083;47.360;9.650;2023-08-12T02:33:43;18.90;99.90
46378;DHT22;32083;47.360;9.650;2023-08-12T02:36:09;18.90;99.90
46378;DHT22;32083;47.360;9.650;2023-08-12T02:38:35;18.90;99.90
46378;DHT22;32083;47.360;9.650;2023-08-12T02:41:01;19.00;99.90
46378;DHT22;32083;47.360;9.650;2023-08-12T02:43:27;19.00;99.90
46378;DHT22;32083;47.360;9.650;2023-08-12T02:45:53;18.90;99.90
46378;DHT22;32083;47.360;9.650;2023-08-12T02:48:20;19.00;99.90
46378;DHT22;32083;47.360;9.650;2023-08-12T02:50:47;19.00;99.90
46378;DHT22;32083;47.360;9.650;2023-08-12T02:53:14;19.00;99.90
46378;DHT22;32083;47.360;9.650;2023-08-12T02:55:41;18.90;99.90
46378;DHT22;32083;47.360;9.650;2023-08-12T02:58:07;18.90;99.90
46378;DHT22;32083;47.360;9.650;2023-08-12T03:00:33;18.90;99.90
46378;DHT22;32083;47.360;9.650;2023-08-12T03:02:59;18.90;99.90
46378;DHT22;32083;47.360;9.650;2023-08-12T03:05:25;18.90;99.90
46378;DHT22;32083;47.360;9.650;2023-08-12T03:07:52;18.90;99.90
46378;DHT22;32083;47.360;9.650;2023-08-12T03:10:18;18.90;99.90
46378;DHT22;32083;47.360;9.650;2023-08-12T03:12:44;18.90;99.90
46378;DHT22;32083;47.360;9.650;2023-08-12T03:15:11;18.90;99.90
46378;DHT22;32083;47.360;9.650;2023-08-12T03:17:37;18.90;99.90
46378;DHT22;32083;47.360;9.650;2023-08-12T03:20:07;18.90;99.90
46378;DHT22;32083;47.360;9.650;2023-08-12T03:22:36;18.90;99.90
46378;DHT22;32083;47.360;9.650;2023-08-12T03:25:03;18.90;99.90
46378;DHT22;32083;47.360;9.650;2023-08-12T03:27:30;18.90;99.90
46378;DHT22;32083;47.360;9.650;2023-08-12T03:29:56;18.90;99.90
46378;DHT22;32083;47.360;9.650;2023-08-12T03:32:22;18.90;99.90
46378;DHT22;32083;47.360;9.650;2023-08-12T03:34:48;18.90;99.90
46378;DHT22;32083;47.360;9.650;2023-08-12T03:37:14;19.00;99.90
46378;DHT22;32083;47.360;9.650;2023-08-12T03:39:40;18.90;99.90
46378;DHT22;32083;47.360;9.650;2023-08-12T03:42:07;19.00;99.90
46378;DHT22;32083;47.360;9.650;2023-08-12T03:44:33;19.00;99.90
46378;DHT22;32083;47.360;9.650;2023-08-12T03:47:00;19.00;99.90
46378;DHT22;32083;47.360;9.650;2023-08-12T03:49:26;19.00;99.90
46378;DHT22;32083;47.360;9.650;2023-08-12T03:51:52;18.90;99.90
46378;DHT22;32083;47.360;9.650;2023-08-12T03:54:18;19.00;99.90
46378;DHT22;32083;47.360;9.650;2023-08-12T03:56:44;19.00;99.90
46378;DHT22;32083;47.360;9.650;2023-08-12T03:59:10;19.00;99.90
46378;DHT22;32083;47.360;9.650;2023-08-12T04:01:37;19.00;99.90
46378;DHT22;32083;47.360;9.650;2023-08-12T04:04:04;19.00;99.90
46378;DHT22;32083;47.360;9.650;2023-08-12T04:06:30;19.00;99.90
46378;DHT22;32083;47.360;9.650;2023-08-12T04:08:56;19.00;99.90
46378;DHT22;32083;47.360;9.650;2023-08-12T04:14:45;19.00;99.90
46378;DHT22;32083;47.360;9.650;2023-08-12T04:17:11;19.00;99.90
46378;DHT22;32083;47.360;9.650;2023-08-12T04:19:37;19.00;99.90
46378;DHT22;32083;47.360;9.650;2023-08-12T04:22:04;19.10;99.90
46378;DHT22;32083;47.360;9.650;2023-08-12T04:24:31;19.10;99.90
46378;DHT22;32083;47.360;9.650;2023-08-12T04:26:58;19.10;99.90
46378;DHT22;32083;47.360;9.650;2023-08-12T04:29:24;19.10;99.90
46378;DHT22;32083;47.360;9.650;2023-08-12T04:31:50;19.10;99.90
46378;DHT22;32083;47.360;9.650;2023-08-12T04:34:18;19.10;99.90
46378;DHT22;32083;47.360;9.650;2023-08-12T04:36:44;19.10;99.90
46378;DHT22;32083;47.360;9.650;2023-08-12T04:39:11;19.10;99.90
46378;DHT22;32083;47.360;9.650;2023-08-12T04:41:37;19.10;99.90
46378;DHT22;32083;47.360;9.650;2023-08-12T04:44:06;19.10;99.90
46378;DHT22;32083;47.360;9.650;2023-08-12T04:46:32;19.10;99.90
46378;DHT22;32083;47.360;9.650;2023-08-12T04:48:58;19.00;99.90
46378;DHT22;32083;47.360;9.650;2023-08-12T04:51:24;19.10;99.90
46378;DHT22;32083;47.360;9.650;2023-08-12T04:53:50;19.00;99.90
46378;DHT22;32083;47.360;9.650;2023-08-12T04:56:17;19.10;99.90
46378;DHT22;32083;47.360;9.650;2023-08-12T04:58:43;19.10;99.90
46378;DHT22;32083;47.360;9.650;2023-08-12T05:01:10;19.10;99.90
46378;DHT22;32083;47.360;9.650;2023-08-12T05:03:37;19.10;99.90
46378;DHT22;32083;47.360;9.650;2023-08-12T05:06:04;19.10;99.90
46378;DHT22;32083;47.360;9.650;2023-08-12T05:08:30;19.10;99.90
46378;DHT22;32083;47.360;9.650;2023-08-12T05:10:59;19.20;99.90
46378;DHT22;32083;47.360;9.650;2023-08-12T05:13:26;19.20;99.90
46378;DHT22;32083;47.360;9.650;2023-08-12T05:15:54;19.20;99.90
46378;DHT22;32083;47.360;9.650;2023-08-12T05:18:22;19.30;99.90
46378;DHT22;32083;47.360;9.650;2023-08-12T05:20:52;19.40;99.90
46378;DHT22;32083;47.360;9.650;2023-08-12T05:23:20;19.40;99.90
46378;DHT22;32083;47.360;9.650;2023-08-12T05:25:47;19.90;99.90
46378;DHT22;32083;47.360;9.650;2023-08-12T05:28:14;20.50;99.90
46378;DHT22;32083;47.360;9.650;2023-08-12T05:30:40;21.30;99.90
46378;DHT22;32083;47.360;9.650;2023-08-12T05:33:07;21.90;99.90
46378;DHT22;32083;47.360;9.650;2023-08-12T05:35:36;21.70;99.90
46378;DHT22;32083;47.360;9.650;2023-08-12T05:38:03;21.70;99.90
46378;DHT22;32083;47.360;9.650;2023-08-12T05:40:29;22.20;99.90
46378;DHT22;32083;47.360;9.650;2023-08-12T05:42:55;22.50;99.90
46378;DHT22;32083;47.360;9.650;2023-08-12T05:45:22;23.00;99.90
46378;DHT22;32083;47.360;9.650;2023-08-12T05:47:48;23.30;99.10
46378;DHT22;32083;47.360;9.650;2023-08-12T05:50:15;22.90;98.80
46378;DHT22;32083;47.360;9.650;2023-08-12T05:52:42;22.50;98.60
46378;DHT22;32083;47.360;9.650;2023-08-12T05:55:09;22.40;98.80
46378;DHT22;32083;47.360;9.650;2023-08-12T05:57:36;22.10;98.80
46378;DHT22;32083;47.360;9.650;2023-08-12T06:00:02;22.00;98.80
46378;DHT22;32083;47.360;9.650;2023-08-12T06:02:28;21.80;99.00
46378;DHT22;32083;47.360;9.650;2023-08-12T06:04:55;21.80;99.50
46378;DHT22;32083;47.360;9.650;2023-08-12T06:07:21;21.80;99.60
46378;DHT22;32083;47.360;9.650;2023-08-12T06:09:49;21.80;99.30
46378;DHT22;32083;47.360;9.650;2023-08-12T06:12:16;21.90;99.40
46378;DHT22;32083;47.360;9.650;2023-08-12T06:14:42;21.80;99.50
46378;DHT22;32083;47.360;9.650;2023-08-12T06:17:08;21.70;99.60
46378;DHT22;32083;47.360;9.650;2023-08-12T06:19:35;21.80;99.90
46378;DHT22;32083;47.360;9.650;2023-08-12T06:22:01;21.80;99.70
46378;DHT22;32083;47.360;9.650;2023-08-12T06:24:27;22.00;99.90
46378;DHT22;32083;47.360;9.650;2023-08-12T06:27:09;22.40;99.90
46378;DHT22;32083;47.360;9.650;2023-08-12T06:29:55;22.90;99.90
46378;DHT22;32083;47.360;9.650;2023-08-12T06:35:32;23.00;98.90
46378;DHT22;32083;47.360;9.650;2023-08-12T06:37:58;23.00;98.30
46378;DHT22;32083;47.360;9.650;2023-08-12T06:40:23;23.10;98.50
46378;DHT22;32083;47.360;9.650;2023-08-12T06:42:50;23.20;98.00
46378;DHT22;32083;47.360;9.650;2023-08-12T06:45:16;23.60;98.50
46378;DHT22;32083;47.360;9.650;2023-08-12T06:47:41;23.80;97.90
46378;DHT22;32083;47.360;9.650;2023-08-12T06:50:08;23.90;97.50
46378;DHT22;32083;47.360;9.650;2023-08-12T06:52:34;23.90;97.00
46378;DHT22;32083;47.360;9.650;2023-08-12T06:55:00;23.90;97.40
46378;DHT22;32083;47.360;9.650;2023-08-12T06:57:25;23.80;96.70
46378;DHT22;32083;47.360;9.650;2023-08-12T06:59:51;23.80;96.50
46378;DHT22;32083;47.360;9.650;2023-08-12T07:02:17;23.70;96.70
46378;DHT22;32083;47.360;9.650;2023-08-12T07:04:43;23.70;96.60
46378;DHT22;32083;47.360;9.650;2023-08-12T07:07:09;23.70;96.60
46378;DHT22;32083;47.360;9.650;2023-08-12T07:09:35;23.60;96.40
46378;DHT22;32083;47.360;9.650;2023-08-12T07:12:01;23.80;97.10
46378;DHT22;32083;47.360;9.650;2023-08-12T07:14:29;23.90;97.60
46378;DHT22;32083;47.360;9.650;2023-08-12T07:16:55;24.00;97.10
46378;DHT22;32083;47.360;9.650;2023-08-12T07:19:22;24.00;97.00
46378;DHT22;32083;47.360;9.650;2023-08-12T07:21:48;24.00;96.60
46378;DHT22;32083;47.360;9.650;2023-08-12T07:24:13;24.00;96.20
46378;DHT22;32083;47.360;9.650;2023-08-12T07:26:39;24.00;96.20
46378;DHT22;32083;47.360;9.650;2023-08-12T07:29:05;24.00;96.40
46378;DHT22;32083;47.360;9.650;2023-08-12T07:31:31;24.00;96.90
46378;DHT22;32083;47.360;9.650;2023-08-12T07:33:57;24.00;96.50
46378;DHT22;32083;47.360;9.650;2023-08-12T07:36:23;24.00;96.70
46378;DHT22;32083;47.360;9.650;2023-08-12T07:38:49;24.00;96.10
46378;DHT22;32083;47.360;9.650;2023-08-12T07:41:14;24.10;96.50
46378;DHT22;32083;47.360;9.650;2023-08-12T07:43:40;24.10;96.00
46378;DHT22;32083;47.360;9.650;2023-08-12T07:46:06;24.10;96.00
46378;DHT22;32083;47.360;9.650;2023-08-12T07:48:32;24.20;96.20
46378;DHT22;32083;47.360;9.650;2023-08-12T07:50:58;24.10;95.80
46378;DHT22;32083;47.360;9.650;2023-08-12T07:53:25;24.10;94.80
46378;DHT22;32083;47.360;9.650;2023-08-12T07:55:51;24.10;95.30
46378;DHT22;32083;47.360;9.650;2023-08-12T07:58:17;24.10;96.50
46378;DHT22;32083;47.360;9.650;2023-08-12T08:00:43;24.10;96.70
46378;DHT22;32083;47.360;9.650;2023-08-12T08:03:09;24.20;96.40
46378;DHT22;32083;47.360;9.650;2023-08-12T08:05:35;24.20;96.30
46378;DHT22;32083;47.360;9.650;2023-08-12T08:08:01;24.20;96.30
46378;DHT22;32083;47.360;9.650;2023-08-12T08:10:27;24.20;96.70
46378;DHT22;32083;47.360;9.650;2023-08-12T08:12:53;24.30;95.40
46378;DHT22;32083;47.360;9.650;2023-08-12T08:15:18;24.40;95.70
46378;DHT22;32083;47.360;9.650;2023-08-12T08:17:44;24.50;97.10
46378;DHT22;32083;47.360;9.650;2023-08-12T08:20:10;24.80;96.60
46378;DHT22;32083;47.360;9.650;2023-08-12T08:25:42;25.10;94.40
46378;DHT22;32083;47.360;9.650;2023-08-12T08:28:08;25.30;94.30
46378;DHT22;32083;47.360;9.650;2023-08-12T08:30:33;25.20;93.50
46378;DHT22;32083;47.360;9.650;2023-08-12T08:32:59;25.30;93.70
46378;DHT22;32083;47.360;9.650;2023-08-12T08:35:25;25.40;93.90
46378;DHT22;32083;47.360;9.650;2023-08-12T08:37:51;25.50;93.10
46378;DHT22;32083;47.360;9.650;2023-08-12T08:40:17;25.60;93.20
46378;DHT22;32083;47.360;9.650;2023-08-12T08:42:43;25.70;93.00
46378;DHT22;32083;47.360;9.650;2023-08-12T08:45:13;25.90;92.80
46378;DHT22;32083;47.360;9.650;2023-08-12T08:47:41;26.20;93.60
46378;DHT22;32083;47.360;9.650;2023-08-12T08:50:08;26.20;91.00
46378;DHT22;32083;47.360;9.650;2023-08-12T08:52:35;26.40;93.00
46378;DHT22;32083;47.360;9.650;2023-08-12T08:55:04;26.70;93.10
46378;DHT22;32083;47.360;9.650;2023-08-12T08:57:30;26.80;92.70
46378;DHT22;32083;47.360;9.650;2023-08-12T08:59:57;26.50;92.00
46378;DHT22;32083;47.360;9.650;2023-08-12T09:02:23;26.50;92.90
46378;DHT22;32083;47.360;9.650;2023-08-12T09:04:50;26.50;92.30
46378;DHT22;32083;47.360;9.650;2023-08-12T09:07:17;26.50;92.10
46378;DHT22;32083;47.360;9.650;2023-08-12T09:09:48;26.30;92.20
46378;DHT22;32083;47.360;9.650;2023-08-12T09:12:16;26.50;92.60
46378;DHT22;32083;47.360;9.650;2023-08-12T09:14:43;26.70;93.00
46378;DHT22;32083;47.360;9.650;2023-08-12T09:17:10;26.80;92.80
46378;DHT22;32083;47.360;9.650;2023-08-12T09:19:35;26.90;92.90
46378;DHT22;32083;47.360;9.650;2023-08-12T09:22:03;27.20;92.50
46378;DHT22;32083;47.360;9.650;2023-08-12T09:24:30;27.10;92.40
46378;DHT22;32083;47.360;9.650;2023-08-12T09:26:56;27.30;91.20
46378;DHT22;32083;47.360;9.650;2023-08-12T09:29:33;27.40;91.50
46378;DHT22;32083;47.360;9.650;2023-08-12T09:32:26;27.40;91.50
46378;DHT22;32083;47.360;9.650;2023-08-12T09:34:55;27.50;92.20
46378;DHT22;32083;47.360;9.650;2023-08-12T09:37:23;27.30;91.70
46378;DHT22;32083;47.360;9.650;2023-08-12T09:39:50;27.10;91.60
46378;DHT22;32083;47.360;9.650;2023-08-12T09:42:16;27.00;92.50
46378;DHT22;32083;47.360;9.650;2023-08-12T09:44:43;27.00;91.90
46378;DHT22;32083;47.360;9.650;2023-08-12T09:47:09;26.90;92.20
46378;DHT22;32083;47.360;9.650;2023-08-12T09:49:35;26.90;92.90
46378;DHT22;32083;47.360;9.650;2023-08-12T09:52:02;26.80;93.50
46378;DHT22;32083;47.360;9.650;2023-08-12T09:54:31;26.80;92.90
46378;DHT22;32083;47.360;9.650;2023-08-12T09:56:58;26.80;92.90
46378;DHT22;32083;47.360;9.650;2023-08-12T09:59:27;26.90;92.90
46378;DHT22;32083;47.360;9.650;2023-08-12T10:01:55;27.00;93.20
46378;DHT22;32083;47.360;9.650;2023-08-12T10:04:27;27.10;94.10
46378;DHT22;32083;47.360;9.650;2023-08-12T10:06:54;27.30;94.00
46378;DHT22;32083;47.360;9.650;2023-08-12T10:09:20;27.30;93.90
46378;DHT22;32083;47.360;9.650;2023-08-12T10:11:46;27.40;94.00
46378;DHT22;32083;47.360;9.650;2023-08-12T10:14:13;27.30;93.80
46378;DHT22;32083;47.360;9.650;2023-08-12T10:16:44;27.20;94.40
46378;DHT22;32083;47.360;9.650;2023-08-12T10:19:12;27.30;94.20
46378;DHT22;32083;47.360;9.650;2023-08-12T10:21:38;27.20;94.30
46378;DHT22;32083;47.360;9.650;2023-08-12T10:24:05;27.20;93.80
46378;DHT22;32083;47.360;9.650;2023-08-12T10:26:32;27.10;93.20
46378;DHT22;32083;47.360;9.650;2023-08-12T10:28:59;27.00;93.40
46378;DHT22;32083;47.360;9.650;2023-08-12T10:31:27;27.00;94.20
46378;DHT22;32083;47.360;9.650;2023-08-12T10:33:57;27.20;93.80
46378;DHT22;32083;47.360;9.650;2023-08-12T10:36:23;27.20;94.00
46378;DHT22;32083;47.360;9.650;2023-08-12T10:38:50;27.20;93.90
46378;DHT22;32083;47.360;9.650;2023-08-12T10:41:22;27.40;94.20
46378;DHT22;32083;47.360;9.650;2023-08-12T10:43:56;27.40;93.40
46378;DHT22;32083;47.360;9.650;2023-08-12T10:46:35;27.40;94.40
46378;DHT22;32083;47.360;9.650;2023-08-12T10:49:09;27.50;94.20
46378;DHT22;32083;47.360;9.650;2023-08-12T10:51:49;27.40;94.30
46378;DHT22;32083;47.360;9.650;2023-08-12T11:02:28;27.30;94.00
46378;DHT22;32083;47.360;9.650;2023-08-12T11:04:55;27.40;94.50
46378;DHT22;32083;47.360;9.650;2023-08-12T11:07:32;27.40;94.70
46378;DHT22;32083;47.360;9.650;2023-08-12T11:10:03;27.40;94.50
46378;DHT22;32083;47.360;9.650;2023-08-12T11:12:34;27.40;94.30
46378;DHT22;32083;47.360;9.650;2023-08-12T11:15:01;27.60;95.30
46378;DHT22;32083;47.360;9.650;2023-08-12T11:17:36;27.70;94.60
46378;DHT22;32083;47.360;9.650;2023-08-12T11:20:04;27.80;94.50
46378;DHT22;32083;47.360;9.650;2023-08-12T11:22:33;27.90;94.30
46378;DHT22;32083;47.360;9.650;2023-08-12T11:25:01;27.90;94.60
46378;DHT22;32083;47.360;9.650;2023-08-12T11:27:27;28.00;94.30
46378;DHT22;32083;47.360;9.650;2023-08-12T11:29:53;28.00;94.80
46378;DHT22;32083;47.360;9.650;2023-08-12T11:32:19;28.00;94.30
46378;DHT22;32083;47.360;9.650;2023-08-12T11:34:45;28.00;94.60
46378;DHT22;32083;47.360;9.650;2023-08-12T11:37:12;28.00;94.60
46378;DHT22;32083;47.360;9.650;2023-08-12T11:39:38;28.10;95.00
46378;DHT22;32083;47.360;9.650;2023-08-12T11:42:04;28.10;95.20
46378;DHT22;32083;47.360;9.650;2023-08-12T11:44:30;28.00;95.00
46378;DHT22;32083;47.360;9.650;2023-08-12T11:46:56;28.00;94.90
46378;DHT22;32083;47.360;9.650;2023-08-12T11:49:22;27.90;94.50
46378;DHT22;32083;47.360;9.650;2023-08-12T11:51:48;27.80;94.10
46378;DHT22;32083;47.360;9.650;2023-08-12T11:54:15;27.90;94.70
46378;DHT22;32083;47.360;9.650;2023-08-12T11:56:42;27.90;94.60
46378;DHT22;32083;47.360;9.650;2023-08-12T11:59:08;27.80;93.40
46378;DHT22;32083;47.360;9.650;2023-08-12T12:01:34;28.00;94.00
46378;DHT22;32083;47.360;9.650;2023-08-12T12:04:01;28.00;93.80
46378;DHT22;32083;47.360;9.650;2023-08-12T12:09:03;28.00;93.20
46378;DHT22;32083;47.360;9.650;2023-08-12T12:11:31;28.00;93.10
46378;DHT22;32083;47.360;9.650;2023-08-12T12:14:01;27.90;93.00
46378;DHT22;32083;47.360;9.650;2023-08-12T12:16:37;27.80;93.40
46378;DHT22;32083;47.360;9.650;2023-08-12T12:19:04;27.60;93.00
46378;DHT22;32083;47.360;9.650;2023-08-12T12:21:39;27.70;93.30
46378;DHT22;32083;47.360;9.650;2023-08-12T12:24:06;27.80;93.60
46378;DHT22;32083;47.360;9.650;2023-08-12T12:26:33;27.80;92.90
46378;DHT22;32083;47.360;9.650;2023-08-12T12:28:59;27.80;93.10
46378;DHT22;32083;47.360;9.650;2023-08-12T12:31:25;28.00;92.60
46378;DHT22;32083;47.360;9.650;2023-08-12T12:33:51;27.70;92.30
46378;DHT22;32083;47.360;9.650;2023-08-12T12:36:17;27.90;92.90
46378;DHT22;32083;47.360;9.650;2023-08-12T12:38:43;28.10;92.90
46378;DHT22;32083;47.360;9.650;2023-08-12T12:41:09;27.80;91.70
46378;DHT22;32083;47.360;9.650;2023-08-12T12:43:35;27.70;91.80
46378;DHT22;32083;47.360;9.650;2023-08-12T12:46:01;27.50;91.90
46378;DHT22;32083;47.360;9.650;2023-08-12T12:48:27;27.60;92.20
46378;DHT22;32083;47.360;9.650;2023-08-12T12:50:52;27.70;92.40
46378;DHT22;32083;47.360;9.650;2023-08-12T12:53:18;27.80;92.10
46378;DHT22;32083;47.360;9.650;2023-08-12T12:55:44;27.70;92.00
46378;DHT22;32083;47.360;9.650;2023-08-12T12:58:10;27.70;92.30
46378;DHT22;32083;47.360;9.650;2023-08-12T13:00:36;27.70;92.20
46378;DHT22;32083;47.360;9.650;2023-08-12T13:03:02;27.70;92.10
46378;DHT22;32083;47.360;9.650;2023-08-12T13:05:28;27.70;91.90
46378;DHT22;32083;47.360;9.650;2023-08-12T13:07:54;27.70;92.40
46378;DHT22;32083;47.360;9.650;2023-08-12T13:10:20;27.70;92.80
46378;DHT22;32083;47.360;9.650;2023-08-12T13:12:46;27.70;92.60
46378;DHT22;32083;47.360;9.650;2023-08-12T13:15:12;27.80;92.80
46378;DHT22;32083;47.360;9.650;2023-08-12T13:17:38;27.80;92.80
46378;DHT22;32083;47.360;9.650;2023-08-12T13:20:05;27.80;92.80
46378;DHT22;32083;47.360;9.650;2023-08-12T13:22:31;27.90;91.90
46378;DHT22;32083;47.360;9.650;2023-08-12T13:24:57;27.90;91.80
46378;DHT22;32083;47.360;9.650;2023-08-12T13:27:23;27.80;92.60
46378;DHT22;32083;47.360;9.650;2023-08-12T13:29:49;27.80;92.10
46378;DHT22;32083;47.360;9.650;2023-08-12T13:32:15;27.70;92.80
46378;DHT22;32083;47.360;9.650;2023-08-12T13:34:41;27.70;92.70
46378;DHT22;32083;47.360;9.650;2023-08-12T13:37:09;27.70;92.40
46378;DHT22;32083;47.360;9.650;2023-08-12T13:39:36;27.60;91.50
46378;DHT22;32083;47.360;9.650;2023-08-12T13:42:02;27.60;92.30
46378;DHT22;32083;47.360;9.650;2023-08-12T13:44:28;27.80;92.70
46378;DHT22;32083;47.360;9.650;2023-08-12T13:46:54;27.80;92.20
46378;DHT22;32083;47.360;9.650;2023-08-12T13:49:20;28.00;92.10
46378;DHT22;32083;47.360;9.650;2023-08-12T13:51:46;27.90;91.80
46378;DHT22;32083;47.360;9.650;2023-08-12T13:54:12;27.90;91.90
46378;DHT22;32083;47.360;9.650;2023-08-12T13:56:38;27.80;92.50
46378;DHT22;32083;47.360;9.650;2023-08-12T13:59:04;27.80;92.10
46378;DHT22;32083;47.360;9.650;2023-08-12T14:01:30;28.20;92.40
46378;DHT22;32083;47.360;9.650;2023-08-12T14:03:56;28.40;91.60
46378;DHT22;32083;47.360;9.650;2023-08-12T14:06:22;28.40;91.40
46378;DHT22;32083;47.360;9.650;2023-08-12T14:08:48;28.50;91.70
46378;DHT22;32083;47.360;9.650;2023-08-12T14:11:14;28.40;91.00
46378;DHT22;32083;47.360;9.650;2023-08-12T14:13:40;28.40;90.50
46378;DHT22;32083;47.360;9.650;2023-08-12T14:16:06;28.20;89.90
46378;DHT22;32083;47.360;9.650;2023-08-12T14:18:32;28.30;90.90
46378;DHT22;32083;47.360;9.650;2023-08-12T14:20:58;28.40;91.00
46378;DHT22;32083;47.360;9.650;2023-08-12T14:23:23;28.40;90.70
46378;DHT22;32083;47.360;9.650;2023-08-12T14:25:49;28.50;92.10
46378;DHT22;32083;47.360;9.650;2023-08-12T14:28:15;28.50;91.30
46378;DHT22;32083;47.360;9.650;2023-08-12T14:30:41;28.50;90.50
46378;DHT22;32083;47.360;9.650;2023-08-12T14:33:07;28.50;90.50
46378;DHT22;32083;47.360;9.650;2023-08-12T14:35:36;28.60;90.80
46378;DHT22;32083;47.360;9.650;2023-08-12T14:38:02;28.60;90.70
46378;DHT22;32083;47.360;9.650;2023-08-12T14:40:28;28.60;90.40
46378;DHT22;32083;47.360;9.650;2023-08-12T14:42:54;28.60;90.80
46378;DHT22;32083;47.360;9.650;2023-08-12T14:45:20;28.60;90.30
46378;DHT22;32083;47.360;9.650;2023-08-12T14:47:46;28.40;90.40
46378;DHT22;32083;47.360;9.650;2023-08-12T14:50:12;28.50;90.70
46378;DHT22;32083;47.360;9.650;2023-08-12T14:52:38;28.70;91.00
46378;DHT22;32083;47.360;9.650;2023-08-12T14:55:04;28.70;91.00
46378;DHT22;32083;47.360;9.650;2023-08-12T14:57:30;28.60;90.40
46378;DHT22;32083;47.360;9.650;2023-08-12T14:59:57;28.70;90.70
46378;DHT22;32083;47.360;9.650;2023-08-12T15:02:23;28.70;90.20
46378;DHT22;32083;47.360;9.650;2023-08-12T15:04:49;28.70;90.40
46378;DHT22;32083;47.360;9.650;2023-08-12T15:07:16;28.80;91.50
46378;DHT22;32083;47.360;9.650;2023-08-12T15:09:42;28.90;90.80
46378;DHT22;32083;47.360;9.650;2023-08-12T15:12:08;28.90;90.80
46378;DHT22;32083;47.360;9.650;2023-08-12T15:14:34;29.00;90.60
46378;DHT22;32083;47.360;9.650;2023-08-12T15:17:00;29.00;90.90
46378;DHT22;32083;47.360;9.650;2023-08-12T15:19:26;29.10;91.30
46378;DHT22;32083;47.360;9.650;2023-08-12T15:21:52;29.20;91.10
46378;DHT22;32083;47.360;9.650;2023-08-12T15:24:18;29.30;91.30
46378;DHT22;32083;47.360;9.650;2023-08-12T15:26:44;29.30;90.20
46378;DHT22;32083;47.360;9.650;2023-08-12T15:29:10;29.40;91.20
46378;DHT22;32083;47.360;9.650;2023-08-12T15:31:36;29.40;90.30
46378;DHT22;32083;47.360;9.650;2023-08-12T15:34:03;29.50;91.40
46378;DHT22;32083;47.360;9.650;2023-08-12T15:36:29;29.50;91.10
46378;DHT22;32083;47.360;9.650;2023-08-12T15:38:55;29.60;90.70
46378;DHT22;32083;47.360;9.650;2023-08-12T15:41:22;29.60;90.60
46378;DHT22;32083;47.360;9.650;2023-08-12T15:43:48;29.60;91.10
46378;DHT22;32083;47.360;9.650;2023-08-12T15:46:14;29.60;90.80
46378;DHT22;32083;47.360;9.650;2023-08-12T15:48:41;29.60;90.80
46378;DHT22;32083;47.360;9.650;2023-08-12T15:51:08;29.60;90.60
46378;DHT22;32083;47.360;9.650;2023-08-12T15:53:34;29.70;90.20
46378;DHT22;32083;47.360;9.650;2023-08-12T15:56:00;29.70;90.80
46378;DHT22;32083;47.360;9.650;2023-08-12T15:58:26;29.80;90.50
46378;DHT22;32083;47.360;9.650;2023-08-12T16:00:52;29.70;90.00